sensor_id;sensor_type;location;lat;lon;timestamp;temperature;humidity
4293;DHT22;2160;51.172;6.808;2023-07-22T04:01:28;17.40;99.90
4293;DHT22;2160;51.172;6.808;2023-07-22T04:03:55;17.40;99.90
4293;DHT22;2160;51.172;6.808;2023-07-22T04:06:22;17.50;99.90
4293;DHT22;2160;51.172;6.808;2023-07-22T04:08:49;17.40;99.90
4293;DHT22;2160;51.172;6.808;2023-07-22T04:11:16;17.60;99.90
4293;DHT22;2160;51.172;6.808;2023-07-22T04:13:43;17.50;99.90
4293;DHT22;2160;51.172;6.808;2023-07-22T04:16:10;17.50;99.90
4293;DHT22;2160;51.172;6.808;2023-07-22T04:18:38;17.50;99.90
4293;DHT22;2160;51.172;6.808;2023-07-22T04:21:05;17.60;99.90
4293;DHT22;2160;51.172;6.808;2023-07-22T04:23:32;17.60;99.90
4293;DHT22;2160;51.172;6.808;2023-07-22T04:26:02;17.70;99.90
4293;DHT22;2160;51.172;6.808;2023-07-22T04:28:30;17.80;99.90
4293;DHT22;2160;51.172;6.808;2023-07-22T04:30:58;17.80;99.90
4293;DHT22;2160;51.172;6.808;2023-07-22T04:33:26;17.90;99.90
4293;DHT22;2160;51.172;6.808;2023-07-22T04:35:57;18.00;99.90
4293;DHT22;2160;51.172;6.808;2023-07-22T04:38:25;18.00;99.90
4293;DHT22;2160;51.172;6.808;2023-07-22T04:40:52;18.10;99.90
4293;DHT22;2160;51.172;6.808;2023-07-22T04:43:19;18.00;99.90
4293;DHT22;2160;51.172;6.808;2023-07-22T04:45:45;18.10;99.90
4293;DHT22;2160;51.172;6.808;2023-07-22T04:48:14;18.10;99.90
4293;DHT22;2160;51.172;6.808;2023-07-22T04:50:41;18.10;99.90
4293;DHT22;2160;51.172;6.808;2023-07-22T04:53:12;18.20;99.90
4293;DHT22;2160;51.172;6.808;2023-07-22T04:55:40;18.30;99.90
4293;DHT22;2160;51.172;6.808;2023-07-22T04:58:07;18.40;99.90
4293;DHT22;2160;51.172;6.808;2023-07-22T05:00:35;18.50;99.90
4293;DHT22;2160;51.172;6.808;2023-07-22T05:03:03;18.50;99.90
4293;DHT22;2160;51.172;6.808;2023-07-22T05:05:30;18.40;99.90
4293;DHT22;2160;51.172;6.808;2023-07-22T05:07:57;18.50;99.90
4293;DHT22;2160;51.172;6.808;2023-07-22T05:10:25;18.60;99.90
4293;DHT22;2160;51.172;6.808;2023-07-22T05:12:54;18.60;99.90
4293;DHT22;2160;51.172;6.808;2023-07-22T05:15:22;18.60;99.90
4293;DHT22;2160;51.172;6.808;2023-07-22T05:17:50;18.70;99.90
4293;DHT22;2160;51.172;6.808;2023-07-22T05:20:17;18.60;99.90
4293;DHT22;2160;51.172;6.808;2023-07-22T05:22:44;18.70;99.90
4293;DHT22;2160;51.172;6.808;2023-07-22T05:25:11;18.80;99.90
4293;DHT22;2160;51.172;6.808;2023-07-22T05:27:39;18.70;99.90
4293;DHT22;2160;51.172;6.808;2023-07-22T05:30:07;18.70;99.90
4293;DHT22;2160;51.172;6.808;2023-07-22T05:32:34;18.90;99.90
4293;DHT22;2160;51.172;6.808;2023-07-22T05:35:01;19.00;99.90
4293;DHT22;2160;51.172;6.808;2023-07-22T05:37:30;19.00;99.90
4293;DHT22;2160;51.172;6.808;2023-07-22T05:39:57;19.10;99.90
4293;DHT22;2160;51.172;6.808;2023-07-22T05:42:24;19.30;99.90
4293;DHT22;2160;51.172;6.808;2023-07-22T05:44:54;19.30;99.90
4293;DHT22;2160;51.172;6.808;2023-07-22T05:47:22;19.30;99.90
4293;DHT22;2160;51.172;6.808;2023-07-22T05:49:49;19.40;99.90
4293;DHT22;2160;51.172;6.808;2023-07-22T05:52:16;19.40;99.90
4293;DHT22;2160;51.172;6.808;2023-07-22T05:54:43;19.50;99.90
4293;DHT22;2160;51.172;6.808;2023-07-22T05:57:11;19.60;99.90
4293;DHT22;2160;51.172;6.808;2023-07-22T05:59:37;19.70;99.90
4293;DHT22;2160;51.172;6.808;2023-07-22T06:02:17;19.80;99.90
4293;DHT22;2160;51.172;6.808;2023-07-22T06:04:44;19.80;99.90
4293;DHT22;2160;51.172;6.808;2023-07-22T06:07:11;19.80;99.90
4293;DHT22;2160;51.172;6.808;2023-07-22T06:09:38;19.90;99.90
4293;DHT22;2160;51.172;6.808;2023-07-22T06:12:05;19.90;99.90
4293;DHT22;2160;51.172;6.808;2023-07-22T06:14:32;19.90;99.90
4293;DHT22;2160;51.172;6.808;2023-07-22T06:16:59;20.00;99.90
4293;DHT22;2160;51.172;6.808;2023-07-22T06:19:27;20.10;99.90
4293;DHT22;2160;51.172;6.808;2023-07-22T06:21:54;20.00;99.90
4293;DHT22;2160;51.172;6.808;2023-07-22T06:24:21;20.10;99.90
4293;DHT22;2160;51.172;6.808;2023-07-22T06:26:48;20.10;99.90
4293;DHT22;2160;51.172;6.808;2023-07-22T06:29:15;20.30;99.90
4293;DHT22;2160;51.172;6.808;2023-07-22T06:31:42;20.20;99.90
4293;DHT22;2160;51.172;6.808;2023-07-22T06:34:09;20.30;99.90
4293;DHT22;2160;51.172;6.808;2023-07-22T06:36:38;20.40;99.90
4293;DHT22;2160;51.172;6.808;2023-07-22T06:39:04;20.40;99.90
4293;DHT22;2160;51.172;6.808;2023-07-22T06:41:31;20.30;99.90
4293;DHT22;2160;51.172;6.808;2023-07-22T06:43:58;20.40;99.90
4293;DHT22;2160;51.172;6.808;2023-07-22T06:46:25;20.60;99.90
4293;DHT22;2160;51.172;6.808;2023-07-22T06:48:52;20.90;99.90
4293;DHT22;2160;51.172;6.808;2023-07-22T06:51:19;21.00;99.60
4293;DHT22;2160;51.172;6.808;2023-07-22T06:53:47;21.20;99.90
4293;DHT22;2160;51.172;6.808;2023-07-22T06:56:14;21.40;99.70
4293;DHT22;2160;51.172;6.808;2023-07-22T06:58:41;21.60;99.10
4293;DHT22;2160;51.172;6.808;2023-07-22T07:01:08;21.70;98.80
4293;DHT22;2160;51.172;6.808;2023-07-22T07:03:35;21.80;97.90
4293;DHT22;2160;51.172;6.808;2023-07-22T07:06:02;21.80;98.10
4293;DHT22;2160;51.172;6.808;2023-07-22T07:08:29;21.90;98.60
4293;DHT22;2160;51.172;6.808;2023-07-22T07:10:59;22.00;98.20
4293;DHT22;2160;51.172;6.808;2023-07-22T07:13:26;22.00;97.40
4293;DHT22;2160;51.172;6.808;2023-07-22T07:15:53;22.00;97.90
4293;DHT22;2160;51.172;6.808;2023-07-22T07:18:20;22.10;97.80
4293;DHT22;2160;51.172;6.808;2023-07-22T07:20:47;22.30;97.20
4293;DHT22;2160;51.172;6.808;2023-07-22T07:23:16;22.30;97.30
4293;DHT22;2160;51.172;6.808;2023-07-22T07:25:43;22.20;96.90
4293;DHT22;2160;51.172;6.808;2023-07-22T07:28:11;22.30;97.10
4293;DHT22;2160;51.172;6.808;2023-07-22T07:30:40;22.40;96.90
4293;DHT22;2160;51.172;6.808;2023-07-22T07:33:07;22.40;96.60
4293;DHT22;2160;51.172;6.808;2023-07-22T07:35:34;22.30;96.90
4293;DHT22;2160;51.172;6.808;2023-07-22T07:38:01;22.40;96.90
4293;DHT22;2160;51.172;6.808;2023-07-22T07:40:28;22.40;96.90
4293;DHT22;2160;51.172;6.808;2023-07-22T07:42:57;22.40;96.40
4293;DHT22;2160;51.172;6.808;2023-07-22T07:45:25;22.60;96.90
4293;DHT22;2160;51.172;6.808;2023-07-22T07:47:52;22.60;95.80
4293;DHT22;2160;51.172;6.808;2023-07-22T07:50:19;22.70;96.40
4293;DHT22;2160;51.172;6.808;2023-07-22T07:52:46;22.70;95.70
4293;DHT22;2160;51.172;6.808;2023-07-22T07:55:13;22.10;95.70
4293;DHT22;2160;51.172;6.808;2023-07-22T07:57:40;21.80;96.50
4293;DHT22;2160;51.172;6.808;2023-07-22T08:00:08;21.90;96.70
4293;DHT22;2160;51.172;6.808;2023-07-22T08:02:38;22.10;96.60
4293;DHT22;2160;51.172;6.808;2023-07-22T08:05:05;22.10;96.20
4293;DHT22;2160;51.172;6.808;2023-07-22T08:07:32;22.20;96.70
4293;DHT22;2160;51.172;6.808;2023-07-22T08:10:00;22.10;96.20
4293;DHT22;2160;51.172;6.808;2023-07-22T08:12:30;22.10;96.50
4293;DHT22;2160;51.172;6.808;2023-07-22T08:14:57;22.20;96.00
4293;DHT22;2160;51.172;6.808;2023-07-22T08:17:24;22.20;95.60
4293;DHT22;2160;51.172;6.808;2023-07-22T08:19:52;22.20;95.10
4293;DHT22;2160;51.172;6.808;2023-07-22T08:22:19;22.10;95.60
4293;DHT22;2160;51.172;6.808;2023-07-22T08:24:46;22.40;96.30
4293;DHT22;2160;51.172;6.808;2023-07-22T08:27:13;22.50;95.10
4293;DHT22;2160;51.172;6.808;2023-07-22T08:29:40;22.70;95.20
4293;DHT22;2160;51.172;6.808;2023-07-22T08:32:07;22.60;95.00
4293;DHT22;2160;51.172;6.808;2023-07-22T08:34:34;22.40;94.00
4293;DHT22;2160;51.172;6.808;2023-07-22T08:37:02;22.30;94.80
4293;DHT22;2160;51.172;6.808;2023-07-22T08:39:29;22.30;95.10
4293;DHT22;2160;51.172;6.808;2023-07-22T08:41:59;22.30;94.80
4293;DHT22;2160;51.172;6.808;2023-07-22T08:44:32;22.30;94.60
4293;DHT22;2160;51.172;6.808;2023-07-22T08:47:01;22.30;95.00
4293;DHT22;2160;51.172;6.808;2023-07-22T08:49:31;22.30;94.80
4293;DHT22;2160;51.172;6.808;2023-07-22T08:51:59;22.40;94.60
4293;DHT22;2160;51.172;6.808;2023-07-22T08:54:28;22.30;94.00
4293;DHT22;2160;51.172;6.808;2023-07-22T08:56:55;22.30;93.90
4293;DHT22;2160;51.172;6.808;2023-07-22T08:59:22;22.50;93.90
4293;DHT22;2160;51.172;6.808;2023-07-22T09:01:51;22.50;92.90
4293;DHT22;2160;51.172;6.808;2023-07-22T09:04:20;22.70;92.90
4293;DHT22;2160;51.172;6.808;2023-07-22T09:06:47;23.00;92.50
4293;DHT22;2160;51.172;6.808;2023-07-22T09:09:15;22.90;91.90
4293;DHT22;2160;51.172;6.808;2023-07-22T09:11:45;23.10;92.50
4293;DHT22;2160;51.172;6.808;2023-07-22T09:14:13;22.90;92.50
4293;DHT22;2160;51.172;6.808;2023-07-22T09:16:40;22.90;91.00
4293;DHT22;2160;51.172;6.808;2023-07-22T09:19:08;23.10;92.50
4293;DHT22;2160;51.172;6.808;2023-07-22T09:21:35;22.90;91.60
4293;DHT22;2160;51.172;6.808;2023-07-22T09:24:02;23.30;91.90
4293;DHT22;2160;51.172;6.808;2023-07-22T09:26:47;23.40;91.00
4293;DHT22;2160;51.172;6.808;2023-07-22T09:29:14;23.50;90.40
4293;DHT22;2160;51.172;6.808;2023-07-22T09:31:49;23.40;89.40
4293;DHT22;2160;51.172;6.808;2023-07-22T09:34:16;23.60;88.60
4293;DHT22;2160;51.172;6.808;2023-07-22T09:36:50;23.60;87.40
4293;DHT22;2160;51.172;6.808;2023-07-22T09:39:18;23.70;86.80
4293;DHT22;2160;51.172;6.808;2023-07-22T09:41:46;23.90;85.50
4293;DHT22;2160;51.172;6.808;2023-07-22T09:44:13;24.00;85.60
4293;DHT22;2160;51.172;6.808;2023-07-22T09:46:41;23.90;83.60
4293;DHT22;2160;51.172;6.808;2023-07-22T09:49:09;23.70;80.20
4293;DHT22;2160;51.172;6.808;2023-07-22T09:51:38;23.70;76.40
4293;DHT22;2160;51.172;6.808;2023-07-22T09:54:06;24.10;79.40
4293;DHT22;2160;51.172;6.808;2023-07-22T09:56:43;24.10;78.30
4293;DHT22;2160;51.172;6.808;2023-07-22T09:59:12;23.90;75.40
4293;DHT22;2160;51.172;6.808;2023-07-22T10:01:40;24.00;77.10
4293;DHT22;2160;51.172;6.808;2023-07-22T10:04:08;24.30;77.20
4293;DHT22;2160;51.172;6.808;2023-07-22T10:06:37;24.40;76.70
4293;DHT22;2160;51.172;6.808;2023-07-22T10:09:05;24.10;74.00
4293;DHT22;2160;51.172;6.808;2023-07-22T10:11:35;23.90;73.80
4293;DHT22;2160;51.172;6.808;2023-07-22T10:14:02;24.00;75.70
4293;DHT22;2160;51.172;6.808;2023-07-22T10:16:31;23.80;76.10
4293;DHT22;2160;51.172;6.808;2023-07-22T10:19:00;23.70;76.20
4293;DHT22;2160;51.172;6.808;2023-07-22T10:21:28;23.70;76.10
4293;DHT22;2160;51.172;6.808;2023-07-22T10:23:56;23.90;78.00
4293;DHT22;2160;51.172;6.808;2023-07-22T10:26:23;24.10;76.60
4293;DHT22;2160;51.172;6.808;2023-07-22T10:28:51;23.90;77.40
4293;DHT22;2160;51.172;6.808;2023-07-22T10:31:18;24.20;77.10
4293;DHT22;2160;51.172;6.808;2023-07-22T10:33:47;24.50;76.90
4293;DHT22;2160;51.172;6.808;2023-07-22T10:36:16;24.50;76.20
4293;DHT22;2160;51.172;6.808;2023-07-22T10:38:43;24.90;77.40
4293;DHT22;2160;51.172;6.808;2023-07-22T10:41:15;25.20;76.10
4293;DHT22;2160;51.172;6.808;2023-07-22T10:43:54;25.30;76.20
4293;DHT22;2160;51.172;6.808;2023-07-22T10:46:31;25.30;73.90
4293;DHT22;2160;51.172;6.808;2023-07-22T10:49:09;25.10;74.00
4293;DHT22;2160;51.172;6.808;2023-07-22T10:51:37;25.10;74.50
4293;DHT22;2160;51.172;6.808;2023-07-22T10:54:10;25.40;73.70
4293;DHT22;2160;51.172;6.808;2023-07-22T10:56:38;25.20;72.70
4293;DHT22;2160;51.172;6.808;2023-07-22T10:59:05;25.30;72.20
4293;DHT22;2160;51.172;6.808;2023-07-22T11:01:34;25.50;71.40
4293;DHT22;2160;51.172;6.808;2023-07-22T11:04:08;25.50;71.20
4293;DHT22;2160;51.172;6.808;2023-07-22T11:06:37;25.30;69.50
4293;DHT22;2160;51.172;6.808;2023-07-22T11:09:05;25.30;67.60
4293;DHT22;2160;51.172;6.808;2023-07-22T11:11:37;25.20;65.60
4293;DHT22;2160;51.172;6.808;2023-07-22T11:14:14;25.30;62.60
4293;DHT22;2160;51.172;6.808;2023-07-22T11:16:42;25.40;62.40
4293;DHT22;2160;51.172;6.808;2023-07-22T11:19:13;25.60;62.50
4293;DHT22;2160;51.172;6.808;2023-07-22T11:21:40;26.10;60.80
4293;DHT22;2160;51.172;6.808;2023-07-22T11:24:07;26.40;60.10
4293;DHT22;2160;51.172;6.808;2023-07-22T11:26:34;26.30;58.30
4293;DHT22;2160;51.172;6.808;2023-07-22T11:29:03;26.70;61.20
4293;DHT22;2160;51.172;6.808;2023-07-22T11:31:31;26.40;58.90
4293;DHT22;2160;51.172;6.808;2023-07-22T11:33:58;26.40;59.50
4293;DHT22;2160;51.172;6.808;2023-07-22T11:36:27;26.60;59.30
4293;DHT22;2160;51.172;6.808;2023-07-22T11:38:54;26.70;59.20
4293;DHT22;2160;51.172;6.808;2023-07-22T11:41:24;26.90;58.70
4293;DHT22;2160;51.172;6.808;2023-07-22T11:43:51;26.80;58.60
4293;DHT22;2160;51.172;6.808;2023-07-22T11:46:18;27.10;57.50
4293;DHT22;2160;51.172;6.808;2023-07-22T11:48:51;27.20;57.40
4293;DHT22;2160;51.172;6.808;2023-07-22T11:51:20;27.10;57.20
4293;DHT22;2160;51.172;6.808;2023-07-22T11:53:50;27.00;57.20
4293;DHT22;2160;51.172;6.808;2023-07-22T11:56:21;27.10;56.20
4293;DHT22;2160;51.172;6.808;2023-07-22T11:58:50;27.40;55.10
4293;DHT22;2160;51.172;6.808;2023-07-22T12:01:17;27.40;54.00
4293;DHT22;2160;51.172;6.808;2023-07-22T12:03:44;27.30;54.30
4293;DHT22;2160;51.172;6.808;2023-07-22T12:06:12;27.80;55.00
4293;DHT22;2160;51.172;6.808;2023-07-22T12:08:44;28.20;52.60
4293;DHT22;2160;51.172;6.808;2023-07-22T12:11:20;28.30;51.70
4293;DHT22;2160;51.172;6.808;2023-07-22T12:13:47;28.00;51.20
4293;DHT22;2160;51.172;6.808;2023-07-22T12:16:22;28.20;52.00
4293;DHT22;2160;51.172;6.808;2023-07-22T12:18:50;28.50;51.20
4293;DHT22;2160;51.172;6.808;2023-07-22T12:21:21;28.30;49.20
4293;DHT22;2160;51.172;6.808;2023-07-22T12:23:48;28.40;50.50
4293;DHT22;2160;51.172;6.808;2023-07-22T12:26:15;28.80;52.40
4293;DHT22;2160;51.172;6.808;2023-07-22T12:28:43;28.80;51.00
4293;DHT22;2160;51.172;6.808;2023-07-22T12:31:10;29.30;49.80
4293;DHT22;2160;51.172;6.808;2023-07-22T12:33:37;29.40;49.70
4293;DHT22;2160;51.172;6.808;2023-07-22T12:36:04;28.80;46.20
4293;DHT22;2160;51.172;6.808;2023-07-22T12:38:32;29.10;48.10
4293;DHT22;2160;51.172;6.808;2023-07-22T12:40:59;30.00;46.90
4293;DHT22;2160;51.172;6.808;2023-07-22T12:43:26;30.00;44.90
4293;DHT22;2160;51.172;6.808;2023-07-22T12:45:55;29.30;44.60
4293;DHT22;2160;51.172;6.808;2023-07-22T12:48:22;28.60;46.60
4293;DHT22;2160;51.172;6.808;2023-07-22T12:50:50;29.00;47.40
4293;DHT22;2160;51.172;6.808;2023-07-22T12:53:17;30.00;47.60
4293;DHT22;2160;51.172;6.808;2023-07-22T12:55:44;30.20;45.00
4293;DHT22;2160;51.172;6.808;2023-07-22T12:58:11;30.70;41.70
4293;DHT22;2160;51.172;6.808;2023-07-22T13:00:38;30.70;40.10
4293;DHT22;2160;51.172;6.808;2023-07-22T13:03:06;29.90;39.90
4293;DHT22;2160;51.172;6.808;2023-07-22T13:05:33;30.10;41.10
4293;DHT22;2160;51.172;6.808;2023-07-22T13:08:00;30.10;39.30
4293;DHT22;2160;51.172;6.808;2023-07-22T13:10:27;30.40;39.50
4293;DHT22;2160;51.172;6.808;2023-07-22T13:12:54;30.10;35.80
4293;DHT22;2160;51.172;6.808;2023-07-22T13:15:22;30.00;37.30
4293;DHT22;2160;51.172;6.808;2023-07-22T13:17:49;30.20;37.20
4293;DHT22;2160;51.172;6.808;2023-07-22T13:20:17;30.90;36.40
4293;DHT22;2160;51.172;6.808;2023-07-22T13:22:44;31.70;35.80
4293;DHT22;2160;51.172;6.808;2023-07-22T13:25:11;32.20;34.30
4293;DHT22;2160;51.172;6.808;2023-07-22T13:27:38;31.30;31.30
4293;DHT22;2160;51.172;6.808;2023-07-22T13:30:07;31.00;31.80
4293;DHT22;2160;51.172;6.808;2023-07-22T13:32:34;31.00;33.00
4293;DHT22;2160;51.172;6.808;2023-07-22T13:35:01;31.20;32.60
4293;DHT22;2160;51.172;6.808;2023-07-22T13:37:31;30.90;31.20
4293;DHT22;2160;51.172;6.808;2023-07-22T13:39:58;31.00;30.70
4293;DHT22;2160;51.172;6.808;2023-07-22T13:42:25;30.90;31.30
4293;DHT22;2160;51.172;6.808;2023-07-22T13:44:52;30.90;30.30
4293;DHT22;2160;51.172;6.808;2023-07-22T13:47:19;30.10;31.00
4293;DHT22;2160;51.172;6.808;2023-07-22T13:49:45;30.00;31.70
4293;DHT22;2160;51.172;6.808;2023-07-22T13:52:12;30.00;31.00
4293;DHT22;2160;51.172;6.808;2023-07-22T13:54:41;30.20;32.30
4293;DHT22;2160;51.172;6.808;2023-07-22T13:57:08;29.50;32.30
4293;DHT22;2160;51.172;6.808;2023-07-22T13:59:35;29.30;33.10
4293;DHT22;2160;51.172;6.808;2023-07-22T14:02:04;29.00;33.10
4293;DHT22;2160;51.172;6.808;2023-07-22T14:04:31;29.10;34.90
4293;DHT22;2160;51.172;6.808;2023-07-22T14:06:58;30.10;34.50
4293;DHT22;2160;51.172;6.808;2023-07-22T14:09:25;30.60;33.70
4293;DHT22;2160;51.172;6.808;2023-07-22T14:11:54;30.00;31.00
4293;DHT22;2160;51.172;6.808;2023-07-22T14:14:24;30.00;32.60
4293;DHT22;2160;51.172;6.808;2023-07-22T14:16:54;30.30;32.80
4293;DHT22;2160;51.172;6.808;2023-07-22T14:19:21;30.20;32.50
4293;DHT22;2160;51.172;6.808;2023-07-22T14:21:49;29.60;33.20
4293;DHT22;2160;51.172;6.808;2023-07-22T14:24:16;29.40;33.60
4293;DHT22;2160;51.172;6.808;2023-07-22T14:26:43;29.90;35.70
4293;DHT22;2160;51.172;6.808;2023-07-22T14:29:11;31.80;33.10
4293;DHT22;2160;51.172;6.808;2023-07-22T14:31:38;32.20;30.60
4293;DHT22;2160;51.172;6.808;2023-07-22T14:34:06;31.50;30.90
4293;DHT22;2160;51.172;6.808;2023-07-22T14:36:33;31.00;31.30
4293;DHT22;2160;51.172;6.808;2023-07-22T14:39:00;32.00;31.90
4293;DHT22;2160;51.172;6.808;2023-07-22T14:41:29;32.50;31.60
4293;DHT22;2160;51.172;6.808;2023-07-22T14:43:56;33.20;31.00
4293;DHT22;2160;51.172;6.808;2023-07-22T14:46:24;33.30;29.10
4293;DHT22;2160;51.172;6.808;2023-07-22T14:48:51;33.10;29.20
4293;DHT22;2160;51.172;6.808;2023-07-22T14:51:18;31.30;30.30
4293;DHT22;2160;51.172;6.808;2023-07-22T14:53:45;30.70;30.60
4293;DHT22;2160;51.172;6.808;2023-07-22T14:56:12;31.40;31.90
4293;DHT22;2160;51.172;6.808;2023-07-22T14:58:39;33.90;30.20
4293;DHT22;2160;51.172;6.808;2023-07-22T15:01:08;33.60;27.20
4293;DHT22;2160;51.172;6.808;2023-07-22T15:03:37;32.60;27.80
4293;DHT22;2160;51.172;6.808;2023-07-22T15:06:04;32.20;28.20
4293;DHT22;2160;51.172;6.808;2023-07-22T15:08:32;31.90;29.40
4293;DHT22;2160;51.172;6.808;2023-07-22T15:10:59;32.30;29.90
4293;DHT22;2160;51.172;6.808;2023-07-22T15:13:27;32.30;28.60
4293;DHT22;2160;51.172;6.808;2023-07-22T15:15:54;32.60;29.50
4293;DHT22;2160;51.172;6.808;2023-07-22T15:18:22;33.30;28.00
4293;DHT22;2160;51.172;6.808;2023-07-22T15:20:51;33.40;27.50
4293;DHT22;2160;51.172;6.808;2023-07-22T15:23:18;33.90;27.70
4293;DHT22;2160;51.172;6.808;2023-07-22T15:25:45;35.10;27.40
4293;DHT22;2160;51.172;6.808;2023-07-22T15:28:13;34.70;26.20
4293;DHT22;2160;51.172;6.808;2023-07-22T15:30:39;33.90;26.60
4293;DHT22;2160;51.172;6.808;2023-07-22T15:33:06;32.60;26.90
4293;DHT22;2160;51.172;6.808;2023-07-22T15:35:33;32.10;28.20
4293;DHT22;2160;51.172;6.808;2023-07-22T15:38:02;32.80;28.70
4293;DHT22;2160;51.172;6.808;2023-07-22T15:40:29;33.80;27.40
4293;DHT22;2160;51.172;6.808;2023-07-22T15:42:56;34.30;26.60
4293;DHT22;2160;51.172;6.808;2023-07-22T15:45:23;33.80;26.10
4293;DHT22;2160;51.172;6.808;2023-07-22T15:47:50;33.00;26.70
4293;DHT22;2160;51.172;6.808;2023-07-22T15:50:17;32.90;27.60
4293;DHT22;2160;51.172;6.808;2023-07-22T15:52:44;32.40;27.80
4293;DHT22;2160;51.172;6.808;2023-07-22T15:55:13;32.70;27.80
4293;DHT22;2160;51.172;6.808;2023-07-22T15:57:40;32.60;27.00
4293;DHT22;2160;51.172;6.808;2023-07-22T16:00:08;32.40;28.20
4293;DHT22;2160;51.172;6.808;2023-07-22T16:02:36;32.20;27.70
4293;DHT22;2160;51.172;6.808;2023-07-22T16:05:04;31.70;28.60
4293;DHT22;2160;51.172;6.808;2023-07-22T16:07:31;31.60;28.20
4293;DHT22;2160;51.172;6.808;2023-07-22T16:09:58;32.00;28.00
4293;DHT22;2160;51.172;6.808;2023-07-22T16:12:27;32.50;27.80
4293;DHT22;2160;51.172;6.808;2023-07-22T16:14:55;33.00;27.40
4293;DHT22;2160;51.172;6.808;2023-07-22T16:17:22;32.80;26.60
4293;DHT22;2160;51.172;6.808;2023-07-22T16:19:49;33.00;27.40
4293;DHT22;2160;51.172;6.808;2023-07-22T16:22:16;33.10;27.00
4293;DHT22;2160;51.172;6.808;2023-07-22T16:24:43;33.40;27.20
4293;DHT22;2160;51.172;6.808;2023-07-22T16:27:10;33.10;27.10
4293;DHT22;2160;51.172;6.808;2023-07-22T16:29:39;31.70;27.50
4293;DHT22;2160;51.172;6.808;2023-07-22T16:32:07;31.20;28.20
4293;DHT22;2160;51.172;6.808;2023-07-22T16:34:34;29.70;28.90
4293;DHT22;2160;51.172;6.808;2023-07-22T16:37:01;28.30;30.30
4293;DHT22;2160;51.172;6.808;2023-07-22T16:39:28;28.00;32.20
4293;DHT22;2160;51.172;6.808;2023-07-22T16:41:55;28.10;32.40
4293;DHT22;2160;51.172;6.808;2023-07-22T16:44:23;27.80;32.20
4293;DHT22;2160;51.172;6.808;2023-07-22T16:46:52;28.00;32.50
4293;DHT22;2160;51.172;6.808;2023-07-22T16:49:19;27.80;32.20
4293;DHT22;2160;51.172;6.808;2023-07-22T16:51:46;27.90;33.30
4293;DHT22;2160;51.172;6.808;2023-07-22T16:54:13;28.20;33.30
4293;DHT22;2160;51.172;6.808;2023-07-22T16:56:40;28.50;32.80
4293;DHT22;2160;51.172;6.808;2023-07-22T16:59:07;28.20;32.80
4293;DHT22;2160;51.172;6.808;2023-07-22T17:01:34;28.10;33.00
4293;DHT22;2160;51.172;6.808;2023-07-22T17:04:03;27.80;33.00
4293;DHT22;2160;51.172;6.808;2023-07-22T17:06:31;27.20;33.00
4293;DHT22;2160;51.172;6.808;2023-07-22T17:08:58;26.60;34.00
4293;DHT22;2160;51.172;6.808;2023-07-22T17:11:25;26.70;34.90
4293;DHT22;2160;51.172;6.808;2023-07-22T17:13:52;26.70;35.00
4293;DHT22;2160;51.172;6.808;2023-07-22T17:16:20;26.60;35.50
4293;DHT22;2160;51.172;6.808;2023-07-22T17:18:47;26.70;35.50
4293;DHT22;2160;51.172;6.808;2023-07-22T17:21:15;26.30;35.50
4293;DHT22;2160;51.172;6.808;2023-07-22T17:23:42;25.90;36.50
4293;DHT22;2160;51.172;6.808;2023-07-22T17:26:09;26.10;36.60
4293;DHT22;2160;51.172;6.808;2023-07-22T17:28:37;26.10;37.20
4293;DHT22;2160;51.172;6.808;2023-07-22T17:31:04;26.30;37.00
4293;DHT22;2160;51.172;6.808;2023-07-22T17:33:31;26.20;37.10
4293;DHT22;2160;51.172;6.808;2023-07-22T17:35:58;26.30;38.00
4293;DHT22;2160;51.172;6.808;2023-07-22T17:38:27;26.30;37.50
4293;DHT22;2160;51.172;6.808;2023-07-22T17:40:54;26.40;38.00
4293;DHT22;2160;51.172;6.808;2023-07-22T17:43:21;26.50;37.80
4293;DHT22;2160;51.172;6.808;2023-07-22T17:45:48;26.10;38.30
4293;DHT22;2160;51.172;6.808;2023-07-22T17:48:15;26.00;38.90
4293;DHT22;2160;51.172;6.808;2023-07-22T17:50:42;25.70;39.40
4293;DHT22;2160;51.172;6.808;2023-07-22T17:53:09;25.70;39.90
4293;DHT22;2160;51.172;6.808;2023-07-22T17:55:38;25.50;40.20
4293;DHT22;2160;51.172;6.808;2023-07-22T17:58:05;25.40;40.40
4293;DHT22;2160;51.172;6.808;2023-07-22T18:00:32;25.40;41.10
4293;DHT22;2160;51.172;6.808;2023-07-22T18:02:59;25.50;41.30
4293;DHT22;2160;51.172;6.808;2023-07-22T18:05:26;25.50;41.10
4293;DHT22;2160;51.172;6.808;2023-07-22T18:07:54;25.60;41.20
4293;DHT22;2160;51.172;6.808;2023-07-22T18:10:21;25.70;41.30
4293;DHT22;2160;51.172;6.808;2023-07-22T18:12:50;25.80;41.00
4293;DHT22;2160;51.172;6.808;2023-07-22T18:15:17;25.40;41.00
4293;DHT22;2160;51.172;6.808;2023-07-22T18:17:44;25.30;40.90
4293;DHT22;2160;51.172;6.808;2023-07-22T18:20:11;25.20;41.30
4293;DHT22;2160;51.172;6.808;2023-07-22T18:22:38;25.20;41.70
4293;DHT22;2160;51.172;6.808;2023-07-22T18:25:05;25.20;42.50
4293;DHT22;2160;51.172;6.808;2023-07-22T18:27:33;25.30;42.10
4293;DHT22;2160;51.172;6.808;2023-07-22T18:30:02;25.30;42.00
4293;DHT22;2160;51.172;6.808;2023-07-22T18:32:30;25.30;42.10
4293;DHT22;2160;51.172;6.808;2023-07-22T18:34:57;25.40;42.00
4293;DHT22;2160;51.172;6.808;2023-07-22T18:37:25;25.40;41.70
4293;DHT22;2160;51.172;6.808;2023-07-22T18:39:52;25.30;42.30
4293;DHT22;2160;51.172;6.808;2023-07-22T18:42:19;25.20;42.70
4293;DHT22;2160;51.172;6.808;2023-07-22T18:44:46;25.10;42.60
4293;DHT22;2160;51.172;6.808;2023-07-22T18:47:15;24.90;42.60
4293;DHT22;2160;51.172;6.808;2023-07-22T18:49:42;25.00;42.80
4293;DHT22;2160;51.172;6.808;2023-07-22T18:52:10;24.90;42.70
4293;DHT22;2160;51.172;6.808;2023-07-22T18:54:37;24.90;43.10
4293;DHT22;2160;51.172;6.808;2023-07-22T18:57:06;24.80;43.10
4293;DHT22;2160;51.172;6.808;2023-07-22T18:59:33;24.80;43.30
4293;DHT22;2160;51.172;6.808;2023-07-22T19:02:01;24.70;43.30
4293;DHT22;2160;51.172;6.808;2023-07-22T19:04:30;24.70;43.50
4293;DHT22;2160;51.172;6.808;2023-07-22T19:06:57;24.60;43.60
4293;DHT22;2160;51.172;6.808;2023-07-22T19:09:24;24.70;44.00
4293;DHT22;2160;51.172;6.808;2023-07-22T19:11:50;24.90;44.10
4293;DHT22;2160;51.172;6.808;2023-07-22T19:14:17;24.80;43.90
4293;DHT22;2160;51.172;6.808;2023-07-22T19:16:51;24.90;44.30
4293;DHT22;2160;51.172;6.808;2023-07-22T19:19:18;24.80;44.60
4293;DHT22;2160;51.172;6.808;2023-07-22T19:21:46;24.70;44.80
4293;DHT22;2160;51.172;6.808;2023-07-22T19:24:17;24.70;45.10
4293;DHT22;2160;51.172;6.808;2023-07-22T19:26:44;24.40;44.50
4293;DHT22;2160;51.172;6.808;2023-07-22T19:29:11;24.30;45.20
4293;DHT22;2160;51.172;6.808;2023-07-22T19:31:38;24.40;45.60
4293;DHT22;2160;51.172;6.808;2023-07-22T19:34:05;24.50;45.40
4293;DHT22;2160;51.172;6.808;2023-07-22T19:36:32;24.40;45.40
4293;DHT22;2160;51.172;6.808;2023-07-22T19:39:01;24.30;45.40
4293;DHT22;2160;51.172;6.808;2023-07-22T19:41:28;24.40;45.70
4293;DHT22;2160;51.172;6.808;2023-07-22T19:43:55;24.50;45.40
4293;DHT22;2160;51.172;6.808;2023-07-22T19:46:22;24.20;45.80
4293;DHT22;2160;51.172;6.808;2023-07-22T19:48:49;24.40;45.70
4293;DHT22;2160;51.172;6.808;2023-07-22T19:51:16;24.50;46.10
4293;DHT22;2160;51.172;6.808;2023-07-22T19:53:44;24.50;46.20
4293;DHT22;2160;51.172;6.808;2023-07-22T19:56:13;24.50;46.10
4293;DHT22;2160;51.172;6.808;2023-07-22T19:58:40;24.40;45.80
4293;DHT22;2160;51.172;6.808;2023-07-22T20:01:07;24.50;46.00
4293;DHT22;2160;51.172;6.808;2023-07-22T20:03:34;24.50;45.80
4293;DHT22;2160;51.172;6.808;2023-07-22T20:06:01;24.40;46.20